Time;durP1;ratioP1;P1;durP2;ratioP2;P2;SDS_P1;SDS_P2;PMS_P1;PMS_P2;Temp;Humidity;BMP_temperature;BMP_pressure;BME280_temperature;BME280_humidity;BME280_pressure;Samples;Min_cycle;Max_cycle;Signal;HPM_P1;HPM_P2
2023/11/03 00:00:54;;;;;;;5.68;5.15;;;10.70;99.90;;;;;;5031231;28;20017;-82
2023/11/03 00:03:19;;;;;;;7.85;5.45;;;10.60;99.90;;;;;;5098620;28;20163;-77
2023/11/03 00:05:45;;;;;;;6.80;5.30;;;10.60;99.90;;;;;;5100077;28;20029;-77
2023/11/03 00:08:11;;;;;;;8.48;5.45;;;10.60;99.90;;;;;;5031366;28;20518;-82
2023/11/03 00:10:38;;;;;;;9.95;6.20;;;10.50;99.90;;;;;;5096083;28;20133;-77
2023/11/03 00:13:04;;;;;;;9.23;7.05;;;10.50;99.90;;;;;;5098374;28;20036;-82
2023/11/03 00:15:29;;;;;;;8.18;6.20;;;10.40;99.90;;;;;;5023990;28;20025;-77
2023/11/03 00:17:59;;;;;;;8.60;6.10;;;10.40;99.90;;;;;;5031419;28;20026;-78
2023/11/03 00:20:24;;;;;;;7.78;5.88;;;10.40;99.90;;;;;;5098554;28;20402;-83
2023/11/03 00:22:50;;;;;;;6.53;5.82;;;10.40;99.90;;;;;;5080899;28;20018;-83
2023/11/03 00:25:16;;;;;;;7.72;5.85;;;10.40;99.90;;;;;;5031219;28;20067;-77
2023/11/03 00:27:44;;;;;;;8.38;5.90;;;10.40;99.90;;;;;;5030724;28;20037;-77
2023/11/03 00:30:12;;;;;;;9.20;5.65;;;10.40;99.90;;;;;;5099414;28;20049;-83
2023/11/03 00:32:38;;;;;;;10.10;6.03;;;10.40;99.90;;;;;;5099274;28;20014;-77
2023/11/03 00:35:08;;;;;;;7.78;5.38;;;10.40;99.90;;;;;;5031269;28;20439;-83
2023/11/03 00:37:36;;;;;;;9.40;5.95;;;10.40;99.90;;;;;;5099362;28;20013;-77
2023/11/03 00:40:03;;;;;;;8.77;5.43;;;10.40;99.90;;;;;;5098964;28;20029;-82
2023/11/03 00:42:30;;;;;;;7.63;5.82;;;10.40;99.90;;;;;;5090517;28;20044;-82
2023/11/03 00:44:55;;;;;;;7.35;5.60;;;10.50;99.90;;;;;;5099141;28;20067;-82
2023/11/03 00:47:21;;;;;;;6.45;5.10;;;10.50;99.90;;;;;;5099295;28;20017;-77
2023/11/03 00:49:47;;;;;;;8.38;5.38;;;10.50;99.90;;;;;;5098931;28;20058;-78
2023/11/03 00:52:13;;;;;;;7.20;5.22;;;10.50;99.90;;;;;;5098570;28;20108;-76
2023/11/03 00:54:38;;;;;;;6.07;5.43;;;10.50;99.90;;;;;;5097957;28;20078;-77
2023/11/03 00:57:05;;;;;;;7.78;5.25;;;10.50;99.90;;;;;;5098576;28;20029;-77
2023/11/03 00:59:30;;;;;;;7.00;5.78;;;10.60;99.90;;;;;;5098857;28;20033;-77
2023/11/03 01:01:56;;;;;;;7.82;6.03;;;10.50;99.90;;;;;;5098557;28;20025;-77
2023/11/03 01:04:22;;;;;;;7.97;6.13;;;10.50;99.90;;;;;;5099043;28;20032;-82
2023/11/03 01:06:48;;;;;;;6.13;5.15;;;10.60;99.90;;;;;;5030424;28;20104;-82
2023/11/03 01:09:14;;;;;;;8.10;5.57;;;10.60;99.90;;;;;;5030416;28;20033;-83
2023/11/03 01:11:40;;;;;;;9.52;5.28;;;10.50;99.90;;;;;;5029826;28;20534;-77
2023/11/03 01:14:07;;;;;;;9.48;6.00;;;10.50;99.90;;;;;;5098387;28;20155;-77
2023/11/03 01:16:36;;;;;;;10.18;5.32;;;10.50;99.90;;;;;;5097335;28;20042;-77
2023/11/03 01:19:05;;;;;;;9.75;5.90;;;10.40;99.90;;;;;;5030475;28;20029;-81
2023/11/03 01:21:39;;;;;;;10.52;6.30;;;10.40;99.90;;;;;;5017599;28;20381;-81
2023/11/03 01:24:06;;;;;;;8.52;5.65;;;10.40;99.90;;;;;;5030370;28;20021;-81
2023/11/03 01:26:33;;;;;;;8.60;5.47;;;10.40;99.90;;;;;;5029883;28;20510;-81
2023/11/03 01:28:59;;;;;;;6.70;5.82;;;10.30;99.90;;;;;;5030026;28;20025;-77
2023/11/03 01:31:25;;;;;;;10.52;6.82;;;10.30;99.90;;;;;;5098444;28;20017;-82
2023/11/03 01:33:51;;;;;;;7.03;6.38;;;10.20;99.90;;;;;;5096812;28;20521;-82
2023/11/03 01:36:17;;;;;;;8.38;6.20;;;10.20;99.90;;;;;;5098399;28;20029;-82
2023/11/03 01:38:44;;;;;;;9.50;6.55;;;10.20;99.90;;;;;;5095850;28;20541;-81
2023/11/03 01:41:11;;;;;;;10.70;6.63;;;10.10;99.90;;;;;;5091021;28;20376;-80
2023/11/03 01:43:36;;;;;;;8.85;6.45;;;10.10;99.90;;;;;;5025324;28;20032;-83
2023/11/03 01:46:02;;;;;;;9.48;6.47;;;10.10;99.90;;;;;;5098194;28;20088;-77
2023/11/03 01:48:31;;;;;;;8.05;6.43;;;10.10;99.90;;;;;;5095299;28;20053;-83
2023/11/03 01:51:00;;;;;;;7.28;6.13;;;10.10;99.90;;;;;;5097745;28;20036;-77
2023/11/03 01:53:28;;;;;;;9.20;6.03;;;10.10;99.90;;;;;;5097871;28;20432;-82
2023/11/03 01:55:54;;;;;;;9.32;7.15;;;10.10;99.90;;;;;;5029946;28;20050;-77
2023/11/03 01:58:21;;;;;;;7.88;6.50;;;10.00;99.90;;;;;;5097812;28;20010;-82
2023/11/03 02:00:47;;;;;;;6.72;5.63;;;10.00;99.90;;;;;;5029924;28;20053;-77
2023/11/03 02:03:13;;;;;;;7.57;6.07;;;10.00;99.90;;;;;;5095276;28;20029;-76
2023/11/03 02:05:39;;;;;;;8.60;6.28;;;10.00;99.90;;;;;;5020493;28;20021;-82
2023/11/03 02:08:05;;;;;;;6.93;5.35;;;10.00;99.90;;;;;;5096979;28;20017;-82
2023/11/03 02:10:31;;;;;;;8.05;6.22;;;10.10;99.90;;;;;;5027955;28;20394;-77
2023/11/03 02:12:57;;;;;;;8.25;5.82;;;10.10;99.90;;;;;;5094543;28;20028;-76
2023/11/03 02:15:23;;;;;;;9.05;6.53;;;10.10;99.90;;;;;;5097780;28;20028;-76
2023/11/03 02:17:48;;;;;;;7.32;5.80;;;10.10;99.90;;;;;;5097078;28;20018;-83
2023/11/03 02:20:14;;;;;;;8.27;5.72;;;10.10;99.90;;;;;;5029479;28;20492;-83
2023/11/03 02:22:40;;;;;;;6.82;5.40;;;10.20;99.90;;;;;;5097638;28;20077;-76
2023/11/03 02:25:06;;;;;;;7.70;5.80;;;10.20;99.90;;;;;;5097735;28;20079;-78
2023/11/03 02:27:31;;;;;;;6.93;6.22;;;10.20;99.90;;;;;;5099355;28;20041;-82
2023/11/03 02:29:57;;;;;;;5.70;5.20;;;10.20;99.90;;;;;;5101703;28;20089;-77
2023/11/03 02:32:22;;;;;;;8.52;5.15;;;10.30;99.90;;;;;;5032732;28;20386;-82
2023/11/03 02:34:48;;;;;;;6.65;5.22;;;10.30;99.90;;;;;;5033088;28;20386;-77
2023/11/03 02:37:14;;;;;;;7.45;5.38;;;10.40;99.90;;;;;;5032654;28;20134;-82
2023/11/03 02:39:40;;;;;;;6.90;5.07;;;10.40;99.90;;;;;;5100187;28;20482;-76
2023/11/03 02:42:09;;;;;;;6.00;5.07;;;10.50;99.90;;;;;;5094160;28;20567;-77
2023/11/03 02:44:36;;;;;;;5.22;4.72;;;10.50;99.90;;;;;;5032817;28;20029;-77
2023/11/03 02:47:02;;;;;;;5.57;5.00;;;10.60;99.90;;;;;;5101572;28;20022;-81
2023/11/03 02:49:29;;;;;;;9.52;5.20;;;10.60;99.90;;;;;;5100539;28;20041;-77
2023/11/03 02:51:54;;;;;;;6.55;5.07;;;10.70;99.90;;;;;;5032624;28;20070;-82
2023/11/03 02:54:20;;;;;;;8.45;5.53;;;10.70;99.90;;;;;;5032757;28;20100;-82
2023/11/03 02:56:45;;;;;;;5.78;4.78;;;10.70;99.90;;;;;;5028747;27;20018;-82
2023/11/03 02:59:11;;;;;;;8.02;5.43;;;10.70;99.90;;;;;;5023896;28;20482;-77
2023/11/03 03:01:39;;;;;;;6.78;4.80;;;10.70;99.90;;;;;;5032484;28;20428;-83
2023/11/03 03:04:05;;;;;;;7.55;5.05;;;10.70;99.90;;;;;;5101009;28;20076;-77
2023/11/03 03:06:31;;;;;;;7.15;4.90;;;10.70;99.90;;;;;;5101056;28;20021;-81
2023/11/03 03:08:57;;;;;;;6.65;5.05;;;10.70;99.90;;;;;;5027746;28;20071;-81
2023/11/03 03:11:23;;;;;;;7.15;4.57;;;10.70;99.90;;;;;;5029913;28;20077;-77
2023/11/03 03:13:48;;;;;;;5.05;4.38;;;10.70;99.90;;;;;;5032413;28;20025;-81
2023/11/03 03:16:18;;;;;;;5.47;4.65;;;10.70;99.90;;;;;;5032023;28;20020;-77
2023/11/03 03:18:44;;;;;;;5.22;4.03;;;10.70;99.90;;;;;;5090019;28;20372;-77
2023/11/03 03:21:09;;;;;;;6.65;5.60;;;10.70;99.90;;;;;;5030846;28;20021;-77
2023/11/03 03:23:35;;;;;;;6.13;5.53;;;10.60;99.90;;;;;;5100942;28;20021;-83
2023/11/03 03:26:00;;;;;;;6.32;5.20;;;10.60;99.90;;;;;;5031473;28;20022;-77
2023/11/03 03:28:26;;;;;;;10.35;5.25;;;10.60;99.90;;;;;;5099557;28;20025;-82
2023/11/03 03:30:51;;;;;;;5.15;4.10;;;10.70;99.90;;;;;;5030924;28;20038;-82
2023/11/03 03:33:18;;;;;;;6.05;5.40;;;10.70;99.90;;;;;;5099173;28;20021;-82
2023/11/03 03:35:44;;;;;;;8.90;5.85;;;10.70;99.90;;;;;;5030861;28;20030;-77
2023/11/03 03:38:09;;;;;;;6.00;4.38;;;10.70;99.90;;;;;;5029854;28;20025;-82
2023/11/03 03:40:35;;;;;;;5.38;4.70;;;10.70;99.90;;;;;;5080454;28;20116;-83
2023/11/03 03:43:02;;;;;;;8.23;4.80;;;10.70;99.90;;;;;;5030770;28;20032;-77
2023/11/03 03:45:29;;;;;;;4.07;3.78;;;10.70;99.90;;;;;;5029792;28;20033;-82
2023/11/03 03:47:54;;;;;;;7.30;4.90;;;10.70;99.90;;;;;;5099771;28;20443;-77
2023/11/03 03:50:20;;;;;;;7.05;4.50;;;10.70;99.90;;;;;;5098988;28;20062;-82
2023/11/03 03:52:46;;;;;;;8.02;4.70;;;10.70;99.90;;;;;;5030704;28;20113;-77
2023/11/03 03:55:12;;;;;;;6.25;3.95;;;10.70;99.90;;;;;;5099010;28;20498;-81
2023/11/03 03:57:37;;;;;;;7.65;4.47;;;10.70;99.90;;;;;;5030562;28;20538;-77
2023/11/03 04:00:04;;;;;;;5.03;4.35;;;10.70;99.90;;;;;;5098780;28;20173;-76
2023/11/03 04:02:30;;;;;;;5.80;4.47;;;10.70;99.90;;;;;;5030553;28;20100;-81
2023/11/03 04:04:57;;;;;;;7.47;4.20;;;10.60;99.90;;;;;;5030300;28;20497;-81
2023/11/03 04:07:22;;;;;;;9.32;5.10;;;10.60;99.90;;;;;;5098886;28;20022;-77
2023/11/03 04:09:48;;;;;;;7.05;4.53;;;10.60;99.90;;;;;;5027529;28;20033;-81
2023/11/03 04:12:14;;;;;;;9.32;4.50;;;10.60;99.90;;;;;;5098976;28;20487;-82
2023/11/03 04:14:39;;;;;;;4.80;4.07;;;10.60;99.90;;;;;;5029936;28;20017;-83
2023/11/03 04:17:05;;;;;;;8.43;4.38;;;10.50;99.90;;;;;;5030373;28;20070;-83
2023/11/03 04:19:32;;;;;;;9.80;4.80;;;10.60;99.90;;;;;;5098703;28;20482;-83
2023/11/03 04:21:58;;;;;;;4.93;3.97;;;10.60;99.90;;;;;;5097619;28;20109;-83
2023/11/03 04:24:24;;;;;;;5.35;3.95;;;10.50;99.90;;;;;;5030480;28;20112;-83
2023/11/03 04:26:49;;;;;;;5.88;4.05;;;10.50;99.90;;;;;;4989541;28;1178355;-82
2023/11/03 04:29:17;;;;;;;6.10;4.30;;;10.50;99.90;;;;;;5031262;28;20068;-82
2023/11/03 04:31:42;;;;;;;5.00;3.78;;;10.50;99.90;;;;;;5030796;28;20423;-76
2023/11/03 04:34:08;;;;;;;7.55;4.63;;;10.50;99.90;;;;;;5031145;28;20056;-82
2023/11/03 04:36:34;;;;;;;5.20;3.70;;;10.50;99.90;;;;;;5099180;28;20702;-82
2023/11/03 04:38:59;;;;;;;4.75;3.90;;;10.60;99.90;;;;;;5024522;28;20121;-77
2023/11/03 04:41:25;;;;;;;6.45;3.47;;;10.60;99.90;;;;;;5094687;28;21304;-76
2023/11/03 04:43:51;;;;;;;3.88;3.45;;;10.70;99.90;;;;;;5031004;28;20100;-76
2023/11/03 04:46:16;;;;;;;5.72;3.53;;;10.80;99.90;;;;;;5098949;28;20029;-81
2023/11/03 04:48:44;;;;;;;7.03;3.72;;;10.90;99.90;;;;;;5030684;28;20018;-76
2023/11/03 04:51:10;;;;;;;5.28;3.83;;;11.00;99.90;;;;;;5098399;28;20478;-77
2023/11/03 04:53:35;;;;;;;5.85;4.05;;;11.00;99.90;;;;;;5099313;28;20071;-76
2023/11/03 04:56:01;;;;;;;3.75;3.42;;;11.00;99.90;;;;;;5098811;28;20053;-81
2023/11/03 04:58:27;;;;;;;6.47;3.88;;;10.90;99.90;;;;;;5030948;28;20049;-81
2023/11/03 05:00:54;;;;;;;7.53;3.85;;;10.80;99.90;;;;;;5030602;28;20021;-77
2023/11/03 05:03:19;;;;;;;4.85;3.08;;;10.80;99.90;;;;;;5024463;28;20360;-77
2023/11/03 05:05:46;;;;;;;5.90;3.80;;;10.80;99.90;;;;;;5094436;28;20036;-76
2023/11/03 05:08:13;;;;;;;5.10;3.03;;;10.80;99.90;;;;;;5030691;28;20025;-82
2023/11/03 05:10:39;;;;;;;3.67;3.10;;;10.80;99.90;;;;;;5098486;28;20029;-82
2023/11/03 05:13:05;;;;;;;3.97;3.30;;;10.80;99.90;;;;;;5030637;28;20029;-82
2023/11/03 05:15:31;;;;;;;5.13;3.40;;;10.80;99.90;;;;;;5098172;28;20021;-77
2023/11/03 05:17:58;;;;;;;4.40;3.50;;;10.80;99.90;;;;;;5098707;28;20014;-82
2023/11/03 05:20:27;;;;;;;2.75;2.45;;;10.80;99.90;;;;;;5098056;28;20514;-82
2023/11/03 05:22:53;;;;;;;2.67;2.35;;;10.90;99.90;;;;;;5098333;28;20022;-81
2023/11/03 05:25:19;;;;;;;3.10;2.78;;;11.10;99.90;;;;;;5026861;28;20018;-82
2023/11/03 05:27:44;;;;;;;3.08;2.70;;;11.30;99.90;;;;;;5098273;28;20512;-82
2023/11/03 05:30:11;;;;;;;3.55;2.75;;;11.40;99.90;;;;;;5025291;28;20084;-77
2023/11/03 05:32:36;;;;;;;4.97;2.70;;;11.50;99.90;;;;;;5092238;28;20014;-77
2023/11/03 05:35:03;;;;;;;3.88;2.47;;;11.70;99.90;;;;;;5030164;28;20467;-77
2023/11/03 05:37:29;;;;;;;3.10;2.78;;;11.70;99.90;;;;;;5030041;28;20078;-77
2023/11/03 05:39:55;;;;;;;4.55;2.72;;;11.80;99.90;;;;;;5030208;28;20051;-82
2023/11/03 05:42:21;;;;;;;4.15;2.80;;;11.80;99.90;;;;;;5030017;28;20102;-76
2023/11/03 05:44:46;;;;;;;5.55;2.70;;;11.80;99.90;;;;;;5098164;28;20027;-77
2023/11/03 05:47:12;;;;;;;3.15;2.53;;;11.90;99.90;;;;;;5097707;28;20022;-82
2023/11/03 05:49:38;;;;;;;3.42;2.55;;;11.90;99.90;;;;;;5029605;28;20034;-77
2023/11/03 05:52:04;;;;;;;3.25;2.60;;;12.00;99.90;;;;;;5098258;28;20079;-82
2023/11/03 05:54:30;;;;;;;3.83;2.13;;;12.00;99.90;;;;;;5029329;28;20037;-82
2023/11/03 05:56:55;;;;;;;3.67;2.60;;;12.10;99.90;;;;;;5097826;28;20474;-82
2023/11/03 05:59:21;;;;;;;2.83;2.17;;;12.10;99.90;;;;;;5096932;28;20026;-77
2023/11/03 06:01:47;;;;;;;6.00;2.58;;;12.20;99.90;;;;;;5027771;28;20033;-77
2023/11/03 06:04:14;;;;;;;3.53;2.65;;;12.20;99.90;;;;;;5029713;28;20032;-82
2023/11/03 06:06:40;;;;;;;5.85;2.58;;;12.10;99.90;;;;;;5021159;28;20472;-82
2023/11/03 06:09:06;;;;;;;4.28;2.60;;;12.00;99.90;;;;;;5091987;28;20093;-82
2023/11/03 06:11:31;;;;;;;4.22;2.83;;;12.00;99.90;;;;;;5097058;28;20205;-81
2023/11/03 06:13:57;;;;;;;5.55;2.97;;;11.90;99.90;;;;;;5028913;28;20036;-82
2023/11/03 06:16:23;;;;;;;2.80;2.60;;;11.90;99.90;;;;;;5022801;28;20154;-82
2023/11/03 06:18:49;;;;;;;3.42;2.67;;;11.80;99.90;;;;;;5020432;28;20030;-83
2023/11/03 06:21:15;;;;;;;7.22;3.67;;;11.80;99.90;;;;;;5097064;28;20036;-82
2023/11/03 06:23:41;;;;;;;4.57;3.42;;;11.80;99.90;;;;;;5029328;28;20054;-81
2023/11/03 06:26:07;;;;;;;4.32;2.70;;;11.80;99.90;;;;;;5028902;28;20094;-82
2023/11/03 06:28:32;;;;;;;5.13;3.00;;;11.70;99.90;;;;;;5095384;28;20447;-82
2023/11/03 06:30:59;;;;;;;4.22;2.90;;;11.70;99.90;;;;;;5017598;28;20045;-81
2023/11/03 06:33:24;;;;;;;2.78;2.30;;;11.60;99.90;;;;;;5096004;28;20425;-82
2023/11/03 06:35:50;;;;;;;3.88;2.42;;;11.60;99.90;;;;;;5021772;27;20026;-77
2023/11/03 06:38:16;;;;;;;3.88;2.67;;;11.60;99.90;;;;;;5092939;28;20057;-77
2023/11/03 06:40:42;;;;;;;5.85;3.15;;;11.60;99.90;;;;;;5090216;28;20037;-77
2023/11/03 06:43:08;;;;;;;4.07;2.85;;;11.50;99.90;;;;;;5023604;28;20099;-82
2023/11/03 06:45:34;;;;;;;3.38;2.55;;;11.50;99.90;;;;;;5020857;28;20041;-82
2023/11/03 06:47:59;;;;;;;3.28;2.65;;;11.40;99.90;;;;;;5026054;28;20024;-83
2023/11/03 06:50:25;;;;;;;3.58;2.80;;;11.40;99.90;;;;;;5022121;28;20562;-83
2023/11/03 06:52:51;;;;;;;5.65;2.83;;;11.30;99.90;;;;;;5094136;28;20104;-82
2023/11/03 06:55:17;;;;;;;3.38;3.05;;;11.20;99.90;;;;;;5093961;28;20124;-75
2023/11/03 06:57:43;;;;;;;4.97;3.40;;;11.20;99.90;;;;;;5092919;28;20033;-78
2023/11/03 07:00:12;;;;;;;5.57;3.40;;;11.20;99.90;;;;;;5016368;28;20034;-82
2023/11/03 07:02:42;;;;;;;3.97;3.30;;;11.20;99.90;;;;;;5021296;28;20076;-82
2023/11/03 07:05:11;;;;;;;3.90;2.45;;;11.20;99.90;;;;;;5094487;28;20091;-78
2023/11/03 07:07:37;;;;;;;4.07;2.63;;;11.20;99.90;;;;;;5083399;28;20062;-77
2023/11/03 07:10:04;;;;;;;4.72;3.08;;;11.20;99.90;;;;;;5017035;28;20046;-82
2023/11/03 07:12:38;;;;;;;3.35;2.42;;;11.20;99.90;;;;;;5093111;28;20029;-82
2023/11/03 07:15:04;;;;;;;2.45;2.25;;;11.20;99.90;;;;;;5025142;28;20494;-77
2023/11/03 07:17:34;;;;;;;4.63;3.60;;;11.20;99.90;;;;;;5094888;27;20099;-77
2023/11/03 07:19:59;;;;;;;6.40;2.85;;;11.20;99.90;;;;;;5097156;27;20030;-82
2023/11/03 07:22:26;;;;;;;4.22;2.40;;;11.20;99.90;;;;;;5019766;28;20014;-82
2023/11/03 07:24:54;;;;;;;3.97;2.92;;;11.20;99.90;;;;;;5024817;28;20042;-77
2023/11/03 07:27:20;;;;;;;7.97;2.90;;;11.20;99.90;;;;;;5098976;27;20046;-77
2023/11/03 07:29:46;;;;;;;3.50;2.80;;;11.20;99.90;;;;;;5093242;27;20082;-86
2023/11/03 07:32:12;;;;;;;6.43;3.00;;;11.30;99.90;;;;;;5023103;28;20037;-82
2023/11/03 07:34:37;;;;;;;6.78;3.00;;;11.30;99.90;;;;;;5029832;28;20028;-84
2023/11/03 07:37:03;;;;;;;3.45;2.90;;;11.30;99.90;;;;;;5099517;28;20040;-83
2023/11/03 07:39:29;;;;;;;4.85;3.17;;;11.40;99.90;;;;;;5102506;28;20112;-81
2023/11/03 07:41:54;;;;;;;4.18;3.03;;;11.30;99.90;;;;;;5030126;28;20048;-81
2023/11/03 07:44:21;;;;;;;4.45;2.90;;;11.40;99.90;;;;;;5024390;28;20390;-80
2023/11/03 07:46:48;;;;;;;4.38;2.88;;;11.40;99.90;;;;;;5031606;28;20105;-81
2023/11/03 07:49:14;;;;;;;4.28;3.15;;;11.40;99.90;;;;;;5100503;28;20551;-81
2023/11/03 07:51:39;;;;;;;4.53;3.00;;;11.40;99.90;;;;;;5031212;28;20038;-81
2023/11/03 07:54:05;;;;;;;6.20;2.95;;;11.50;99.90;;;;;;5099492;27;20032;-81
2023/11/03 07:56:31;;;;;;;4.68;3.13;;;11.50;99.90;;;;;;5027368;28;20022;-80
2023/11/03 07:58:57;;;;;;;3.28;2.67;;;11.60;99.90;;;;;;5030994;28;20025;-81
2023/11/03 08:01:29;;;;;;;4.38;3.10;;;11.60;99.90;;;;;;5031422;28;20447;-83
2023/11/03 08:03:55;;;;;;;;;;;11.60;99.90;;;;;;5029471;28;20049;-82
2023/11/03 08:06:21;;;;;;;5.88;3.08;;;11.70;99.90;;;;;;5026308;28;19916;-77
2023/11/03 08:08:47;;;;;;;3.28;2.55;;;11.70;99.90;;;;;;5098724;27;20029;-77
2023/11/03 08:11:12;;;;;;;4.15;2.50;;;11.70;99.90;;;;;;5030420;28;20072;-76
2023/11/03 08:13:40;;;;;;;4.75;2.55;;;11.70;99.90;;;;;;5099918;27;20014;-77
2023/11/03 08:16:08;;;;;;;6.15;3.03;;;11.80;99.90;;;;;;5099528;28;20021;-76
2023/11/03 08:18:33;;;;;;;5.25;2.83;;;11.80;99.90;;;;;;5099319;28;20032;-77
2023/11/03 08:20:59;;;;;;;6.03;3.00;;;11.80;99.90;;;;;;5097217;28;20025;-76
2023/11/03 08:23:24;;;;;;;5.95;3.35;;;11.80;99.90;;;;;;5098823;28;20371;-76
2023/11/03 08:25:50;;;;;;;5.47;2.78;;;11.80;99.90;;;;;;5023500;28;20498;-77
2023/11/03 08:28:16;;;;;;;6.68;2.58;;;11.80;99.90;;;;;;5084305;28;20174;-77
2023/11/03 08:30:41;;;;;;;3.67;2.53;;;11.90;99.90;;;;;;5091889;28;20038;-77
2023/11/03 08:33:08;;;;;;;3.05;2.67;;;11.80;99.90;;;;;;5092184;28;20022;-76
2023/11/03 08:35:34;;;;;;;4.72;2.63;;;11.80;99.90;;;;;;5022008;28;20025;-77
2023/11/03 08:38:00;;;;;;;5.90;3.65;;;11.80;99.90;;;;;;5022996;28;20379;-77
2023/11/03 08:40:26;;;;;;;4.45;3.30;;;11.80;99.90;;;;;;5089571;27;20439;-76
2023/11/03 08:42:52;;;;;;;6.25;2.70;;;11.80;99.90;;;;;;5095953;28;20096;-76
2023/11/03 08:45:19;;;;;;;5.03;2.40;;;11.80;99.90;;;;;;5030733;28;20108;-76
2023/11/03 08:47:46;;;;;;;4.45;3.08;;;11.70;99.90;;;;;;5098197;28;20022;-76
2023/11/03 08:50:13;;;;;;;3.80;2.60;;;11.80;99.90;;;;;;5098861;28;20402;-76
2023/11/03 08:52:40;;;;;;;8.27;2.70;;;11.80;99.90;;;;;;5098600;28;20029;-76
2023/11/03 08:55:07;;;;;;;4.20;3.00;;;11.70;99.90;;;;;;5030403;28;20067;-76
2023/11/03 08:57:34;;;;;;;7.85;3.10;;;11.70;99.90;;;;;;5029970;28;20053;-76
2023/11/03 09:00:01;;;;;;;4.43;3.20;;;11.80;99.90;;;;;;5028245;28;20479;-76
2023/11/03 09:02:27;;;;;;;4.32;2.42;;;11.80;99.90;;;;;;5097364;28;20026;-76
2023/11/03 09:04:53;;;;;;;6.90;3.05;;;11.70;99.90;;;;;;5106713;27;20393;-77
2023/11/03 09:07:19;;;;;;;3.30;2.88;;;11.70;99.90;;;;;;5093580;28;20029;-77
2023/11/03 09:09:44;;;;;;;4.65;3.00;;;11.70;99.90;;;;;;5019319;28;20104;-75
2023/11/03 09:12:10;;;;;;;3.55;2.65;;;11.70;99.90;;;;;;5093757;28;20048;-75
2023/11/03 09:14:38;;;;;;;4.93;3.13;;;11.70;99.90;;;;;;5097863;28;20040;-75
2023/11/03 09:17:06;;;;;;;5.95;3.33;;;11.70;99.90;;;;;;5097846;28;20032;-76
2023/11/03 09:19:32;;;;;;;4.88;3.05;;;11.70;99.90;;;;;;5098264;28;20355;-76
2023/11/03 09:21:57;;;;;;;6.80;3.20;;;11.70;99.90;;;;;;5029617;28;20036;-75
2023/11/03 09:24:23;;;;;;;4.90;2.95;;;11.70;99.90;;;;;;5098561;28;20482;-75
2023/11/03 09:26:48;;;;;;;3.50;3.10;;;11.70;99.90;;;;;;5029558;28;20487;-76
2023/11/03 09:29:14;;;;;;;5.88;3.28;;;11.70;99.90;;;;;;5030171;28;20026;-75
2023/11/03 09:31:40;;;;;;;3.17;2.70;;;11.70;99.90;;;;;;5097451;28;20037;-75
2023/11/03 09:34:06;;;;;;;5.75;3.38;;;11.70;99.90;;;;;;5094776;28;20025;-76
2023/11/03 09:36:31;;;;;;;3.80;3.08;;;11.70;99.90;;;;;;5025787;28;20017;-75
2023/11/03 09:38:57;;;;;;;5.45;2.97;;;11.70;99.90;;;;;;5098106;28;20010;-75
2023/11/03 09:41:25;;;;;;;3.85;3.00;;;11.80;99.90;;;;;;5019482;28;20357;-74
2023/11/03 09:43:50;;;;;;;3.75;3.20;;;11.80;99.90;;;;;;5114481;27;20028;-75
2023/11/03 09:46:18;;;;;;;6.20;3.13;;;11.70;99.90;;;;;;5023807;27;20130;-75
2023/11/03 09:48:44;;;;;;;4.75;3.20;;;11.70;99.90;;;;;;5029598;28;20033;-74
2023/11/03 09:51:10;;;;;;;4.78;3.50;;;11.70;99.90;;;;;;5016103;28;20490;-75
2023/11/03 09:53:39;;;;;;;5.18;3.10;;;11.70;99.90;;;;;;5097814;28;20177;-75
2023/11/03 09:56:07;;;;;;;6.78;3.10;;;11.70;99.90;;;;;;5028845;28;20021;-76
2023/11/03 09:58:34;;;;;;;3.88;3.15;;;11.70;99.90;;;;;;5020327;27;20074;-76
2023/11/03 10:01:01;;;;;;;5.35;2.90;;;11.70;99.90;;;;;;5093639;28;20017;-76
2023/11/03 10:03:27;;;;;;;6.25;3.03;;;11.70;99.90;;;;;;5027373;28;20025;-76
2023/11/03 10:05:54;;;;;;;4.82;3.10;;;11.70;99.90;;;;;;5097581;28;20074;-76
2023/11/03 10:08:20;;;;;;;5.47;3.05;;;11.70;99.90;;;;;;5029055;28;20111;-75
2023/11/03 10:10:47;;;;;;;3.38;2.63;;;11.70;99.90;;;;;;5096073;28;20174;-82
2023/11/03 10:13:15;;;;;;;8.25;3.80;;;11.70;99.90;;;;;;5029398;28;20041;-82
2023/11/03 10:15:42;;;;;;;6.30;3.22;;;11.70;99.90;;;;;;5029109;28;20074;-82
2023/11/03 10:18:08;;;;;;;6.57;3.00;;;11.70;99.90;;;;;;5024191;28;20049;-76
2023/11/03 10:20:34;;;;;;;5.25;3.30;;;11.70;99.90;;;;;;5097343;28;20053;-76
2023/11/03 10:23:00;;;;;;;5.95;2.95;;;11.70;99.90;;;;;;5027533;28;20071;-82
2023/11/03 10:25:27;;;;;;;4.65;3.08;;;11.70;99.90;;;;;;5096772;28;20027;-81
2023/11/03 10:27:56;;;;;;;5.18;2.88;;;11.70;99.90;;;;;;5097054;28;20052;-76
2023/11/03 10:30:26;;;;;;;5.90;3.92;;;11.70;99.90;;;;;;5088701;28;20041;-75
2023/11/03 10:32:55;;;;;;;4.72;3.30;;;11.60;99.90;;;;;;5022179;28;20053;-75
2023/11/03 10:35:22;;;;;;;4.07;3.40;;;11.50;99.90;;;;;;5095880;28;20055;-75
2023/11/03 10:37:47;;;;;;;6.70;3.38;;;11.40;99.90;;;;;;5096791;28;20082;-75
2023/11/03 10:40:14;;;;;;;6.30;4.30;;;11.30;99.90;;;;;;5097010;28;20030;-75
2023/11/03 10:42:51;;;;;;;6.60;3.72;;;11.30;99.90;;;;;;5097266;28;20018;-75
2023/11/03 10:45:20;;;;;;;5.95;4.13;;;11.20;99.90;;;;;;5097279;28;20074;-75
2023/11/03 10:48:15;;;;;;;4.68;4.03;;;11.20;99.90;;;;;;5029086;28;20036;-75
2023/11/03 10:51:07;;;;;;;4.78;3.35;;;11.20;99.90;;;;;;5060597;28;20030;-76
2023/11/03 10:53:55;;;;;;;6.47;4.22;;;11.10;99.90;;;;;;5020215;28;20457;-76
2023/11/03 10:56:22;;;;;;;7.00;4.18;;;11.10;99.90;;;;;;5078365;28;20022;-75
2023/11/03 10:58:49;;;;;;;7.57;4.85;;;11.00;99.90;;;;;;5103021;27;20493;-75
2023/11/03 11:01:29;;;;;;;8.20;5.15;;;10.90;99.90;;;;;;5037909;27;20027;-76
2023/11/03 11:03:57;;;;;;;5.43;4.38;;;10.90;99.90;;;;;;5093117;28;20037;-75
2023/11/03 11:06:38;;;;;;;5.13;4.47;;;10.90;99.90;;;;;;5097948;28;20090;-75
2023/11/03 11:09:17;;;;;;;6.40;4.20;;;10.90;99.90;;;;;;5091172;28;20045;-75
2023/11/03 11:11:47;;;;;;;7.07;4.80;;;10.90;99.90;;;;;;5028168;28;20033;-75
2023/11/03 11:14:23;;;;;;;6.43;5.00;;;10.80;99.90;;;;;;5093252;27;20436;-76
2023/11/03 11:16:56;;;;;;;7.00;4.68;;;10.80;99.90;;;;;;5030015;28;20029;-76
2023/11/03 11:19:36;;;;;;;8.88;5.80;;;10.80;99.90;;;;;;5099333;28;20124;-75
2023/11/03 11:22:03;;;;;;;7.43;5.78;;;10.80;99.90;;;;;;5027677;27;20032;-75
2023/11/03 11:24:30;;;;;;;5.72;5.00;;;10.80;99.90;;;;;;5027731;28;20047;-76
2023/11/03 11:27:14;;;;;;;6.57;5.05;;;10.80;99.90;;;;;;5097097;28;20045;-77
2023/11/03 11:29:43;;;;;;;5.97;5.00;;;10.80;99.90;;;;;;5095203;28;20136;-81
2023/11/03 11:32:11;;;;;;;8.73;4.68;;;10.80;99.90;;;;;;5096745;28;20026;-82
2023/11/03 11:34:38;;;;;;;7.05;5.03;;;10.80;99.90;;;;;;5083738;28;20033;-82
2023/11/03 11:37:29;;;;;;;5.28;4.75;;;10.80;99.90;;;;;;5030940;28;20026;-82
2023/11/03 11:39:59;;;;;;;6.75;4.63;;;10.90;99.90;;;;;;5094100;28;20029;-82
2023/11/03 11:42:28;;;;;;;8.27;5.90;;;10.90;99.90;;;;;;5025231;28;20025;-83
2023/11/03 11:44:54;;;;;;;7.10;5.50;;;10.90;99.90;;;;;;5096104;28;20153;-82
2023/11/03 11:47:24;;;;;;;9.77;5.63;;;10.90;99.90;;;;;;5083328;28;20040;-83
2023/11/03 11:49:55;;;;;;;8.10;5.25;;;11.00;99.90;;;;;;5028202;28;20037;-81
2023/11/03 11:52:25;;;;;;;7.60;5.78;;;11.00;99.90;;;;;;5020944;28;20048;-82
2023/11/03 11:54:55;;;;;;;10.00;5.75;;;11.10;99.90;;;;;;5097278;28;20021;-82
2023/11/03 11:57:21;;;;;;;9.07;6.22;;;11.10;99.90;;;;;;5095016;28;20032;-82
2023/11/03 11:59:51;;;;;;;6.38;5.32;;;11.10;99.90;;;;;;5088545;28;20026;-83
2023/11/03 12:02:21;;;;;;;6.90;5.78;;;11.10;99.90;;;;;;5024457;28;20040;-82
2023/11/03 12:04:51;;;;;;;8.50;4.88;;;11.10;99.90;;;;;;5024854;28;20032;-82
2023/11/03 12:07:24;;;;;;;7.35;5.40;;;11.10;99.90;;;;;;5094491;28;20029;-82
2023/11/03 12:09:53;;;;;;;9.38;5.20;;;11.10;99.90;;;;;;5031474;28;20104;-83
2023/11/03 12:12:25;;;;;;;10.75;5.97;;;11.10;99.90;;;;;;5027573;28;20030;-82
2023/11/03 12:14:52;;;;;;;11.23;5.68;;;11.10;99.90;;;;;;5089943;28;20112;-82
2023/11/03 12:17:21;;;;;;;7.07;6.03;;;11.10;99.90;;;;;;5090187;28;21226;-81
2023/11/03 12:19:51;;;;;;;7.45;5.75;;;11.10;99.90;;;;;;5026327;28;20021;-81
2023/11/03 12:22:21;;;;;;;10.38;6.60;;;11.10;99.90;;;;;;5023746;28;20029;-82
2023/11/03 12:24:50;;;;;;;8.75;6.18;;;11.10;99.90;;;;;;5031303;28;20025;-82
2023/11/03 12:27:16;;;;;;;9.50;7.10;;;11.10;99.90;;;;;;5096845;28;20044;-81
2023/11/03 12:29:43;;;;;;;11.43;7.40;;;11.10;99.90;;;;;;5098957;28;20125;-83
2023/11/03 12:32:09;;;;;;;11.23;6.32;;;11.20;99.90;;;;;;5098606;28;20052;-82
2023/11/03 12:34:38;;;;;;;9.60;5.90;;;11.20;99.90;;;;;;5099326;27;20060;-82
2023/11/03 12:37:04;;;;;;;8.43;5.82;;;11.20;99.90;;;;;;5017013;28;20025;-83
2023/11/03 12:39:45;;;;;;;8.27;5.63;;;11.20;99.90;;;;;;5098038;28;20486;-82
2023/11/03 12:42:14;;;;;;;7.50;5.60;;;11.20;99.90;;;;;;5098494;28;20021;-82
2023/11/03 12:44:49;;;;;;;9.38;6.43;;;11.20;99.90;;;;;;5098888;28;20497;-83